Time;durP1;ratioP1;P1;durP2;ratioP2;P2;SDS_P1;SDS_P2;PMS_P1;PMS_P2;Temp;Humidity;BMP_temperature;BMP_pressure;BME280_temperature;BME280_humidity;BME280_pressure;Samples;Min_cycle;Max_cycle;Signal;HPM_P1;HPM_P2
2024/04/08 00:00:58;;;;;;;12.27;4.30;;;;;;;14.98;71.58;99808.41;2661359;27;20678;-75
2024/04/08 00:02:11;;;;;;;10.60;3.95;;;;;;;14.90;71.65;99810.50;2659996;27;20492;-75
2024/04/08 00:03:24;;;;;;;8.57;4.13;;;;;;;14.81;71.48;99803.81;2659835;26;20013;-75
2024/04/08 00:04:37;;;;;;;8.48;4.00;;;;;;;14.80;72.02;99800.34;2662151;27;20006;-75
2024/04/08 00:07:15;;;;;;;10.60;4.32;;;;;;;14.80;72.36;99810.00;2616991;27;20008;-78
2024/04/08 00:08:28;;;;;;;11.10;4.68;;;;;;;14.79;72.47;99801.28;2625947;27;20721;-78
2024/04/08 00:09:42;;;;;;;11.73;4.53;;;;;;;14.80;72.68;99794.25;2618801;27;20513;-78
2024/04/08 00:10:55;;;;;;;15.82;5.85;;;;;;;14.79;72.36;99790.75;2627707;27;20493;-78
2024/04/08 00:12:08;;;;;;;9.85;3.45;;;;;;;14.78;71.96;99789.03;2617379;27;20001;-77
2024/04/08 00:13:21;;;;;;;4.55;3.40;;;;;;;14.77;72.09;99778.59;2610491;27;20023;-77
2024/04/08 00:14:35;;;;;;;7.65;3.85;;;;;;;14.72;72.45;99786.66;2617070;27;20036;-78
2024/04/08 00:15:57;;;;;;;9.23;4.22;;;;;;;14.66;71.95;99791.28;2628278;27;20015;-77
2024/04/08 00:17:11;;;;;;;8.73;4.10;;;;;;;14.60;72.82;99784.50;2611392;27;20000;-78
2024/04/08 00:18:24;;;;;;;9.25;3.53;;;;;;;14.60;73.25;99782.72;2612074;27;20458;-78
2024/04/08 00:19:37;;;;;;;12.38;4.95;;;;;;;14.63;72.85;99784.38;2611932;27;20040;-79
2024/04/08 00:21:03;;;;;;;9.95;4.78;;;;;;;14.69;72.80;99791.16;2629390;27;20019;-78
2024/04/08 00:22:16;;;;;;;7.68;3.83;;;;;;;14.72;72.59;99789.28;2611762;27;20023;-78
2024/04/08 00:23:29;;;;;;;7.50;4.57;;;;;;;14.74;72.97;99776.94;2612008;27;20005;-78
2024/04/08 00:24:43;;;;;;;10.55;5.15;;;;;;;14.78;72.55;99775.03;2628831;27;20000;-77
2024/04/08 00:25:56;;;;;;;9.77;4.15;;;;;;;14.78;72.18;99777.69;2622707;27;20442;-78
2024/04/08 00:27:09;;;;;;;12.70;4.80;;;;;;;14.77;72.71;99782.06;2628028;27;20424;-77
2024/04/08 00:28:22;;;;;;;8.88;4.30;;;;;;;14.77;72.42;99792.59;2610666;27;20032;-77
2024/04/08 00:29:35;;;;;;;13.07;5.35;;;;;;;14.76;72.28;99782.97;2612032;27;20016;-78
2024/04/08 00:30:49;;;;;;;19.42;4.90;;;;;;;14.77;72.56;99783.84;2612892;27;20019;-78
2024/04/08 00:32:02;;;;;;;6.82;3.72;;;;;;;14.76;72.60;99782.97;2611242;27;20079;-78
2024/04/08 00:33:15;;;;;;;9.55;4.15;;;;;;;14.77;72.77;99778.59;2612547;27;20354;-78
2024/04/08 00:34:29;;;;;;;14.63;4.50;;;;;;;14.77;72.53;99789.09;2628383;27;20043;-77
2024/04/08 00:35:42;;;;;;;7.20;4.50;;;;;;;14.76;73.05;99776.88;2622381;27;20014;-78
2024/04/08 00:36:55;;;;;;;8.35;4.20;;;;;;;14.76;72.50;99771.63;2627945;27;20008;-78
2024/04/08 00:38:08;;;;;;;11.35;4.15;;;;;;;14.76;72.76;99784.75;2611797;27;20080;-78
2024/04/08 00:39:22;;;;;;;9.30;4.22;;;;;;;14.74;72.55;99787.47;2611592;27;20008;-77
2024/04/08 00:40:37;;;;;;;10.48;4.78;;;;;;;14.75;72.50;99775.19;2611716;27;20004;-78
2024/04/08 00:41:51;;;;;;;11.48;4.18;;;;;;;14.74;72.92;99774.31;2617812;27;20008;-77
2024/04/08 00:43:07;;;;;;;14.90;4.90;;;;;;;14.74;72.99;99774.31;2608251;27;20008;-77
2024/04/08 00:44:20;;;;;;;9.35;4.05;;;;;;;14.74;73.19;99776.06;2615994;27;20081;-78
2024/04/08 00:45:36;;;;;;;6.93;4.95;;;;;;;14.73;72.98;99775.22;2611728;27;20549;-77
2024/04/08 00:46:49;;;;;;;9.85;4.10;;;;;;;14.72;73.32;99770.06;2617845;27;20378;-77
2024/04/08 00:48:04;;;;;;;7.47;3.33;;;;;;;14.72;73.18;99768.28;2622378;27;20019;-77
2024/04/08 00:49:17;;;;;;;6.32;3.95;;;;;;;14.74;72.91;99763.81;2627959;27;20003;-78
2024/04/08 00:50:31;;;;;;;12.32;3.97;;;;;;;14.73;72.89;99767.34;2610933;27;20354;-78
2024/04/08 00:51:44;;;;;;;11.02;4.05;;;;;;;14.74;72.83;99768.19;2616720;27;20060;-78
2024/04/08 00:52:57;;;;;;;10.05;4.53;;;;;;;14.73;72.75;99767.34;2622670;27;20004;-78
2024/04/08 00:54:11;;;;;;;9.95;4.03;;;;;;;14.74;73.42;99773.44;2612946;27;20023;-78
2024/04/08 00:55:25;;;;;;;14.85;4.45;;;;;;;14.74;73.05;99779.59;2628015;27;19999;-78
2024/04/08 00:56:40;;;;;;;12.05;4.03;;;;;;;14.76;73.05;99780.34;2611278;27;20371;-78
2024/04/08 00:57:55;;;;;;;11.32;3.95;;;;;;;14.78;72.87;99780.31;2612347;27;20156;-78
2024/04/08 00:59:11;;;;;;;9.27;5.00;;;;;;;14.77;72.95;99782.06;2607215;27;20008;-78
2024/04/08 01:00:25;;;;;;;11.45;4.30;;;;;;;14.80;72.91;99781.09;2614964;27;20012;-77
2024/04/08 01:01:39;;;;;;;10.05;4.20;;;;;;;14.80;73.50;99787.22;2604321;27;20363;-78
2024/04/08 01:02:53;;;;;;;9.38;4.90;;;;;;;14.80;73.07;99779.31;2594326;27;20107;-78
2024/04/08 01:04:06;;;;;;;9.18;5.07;;;;;;;14.81;72.58;99777.53;2593564;27;20415;-77
2024/04/08 01:05:20;;;;;;;7.63;4.65;;;;;;;14.80;72.96;99773.22;2593677;27;20443;-77
2024/04/08 01:06:33;;;;;;;9.02;4.63;;;;;;;14.80;72.79;99779.31;2616715;27;19999;-77
2024/04/08 01:07:46;;;;;;;14.38;3.97;;;;;;;14.79;72.81;99776.75;2631662;27;20004;-77
2024/04/08 01:09:00;;;;;;;7.45;4.65;;;;;;;14.77;72.78;99779.44;2637665;27;20614;-77
2024/04/08 01:10:15;;;;;;;17.80;5.20;;;;;;;14.77;72.62;99789.09;2620078;27;20477;-78
2024/04/08 01:11:29;;;;;;;13.02;5.72;;;;;;;14.77;72.57;99794.38;2612898;27;20421;-77
2024/04/08 01:12:42;;;;;;;9.73;4.18;;;;;;;14.74;72.97;99789.22;2632168;27;20008;-76
2024/04/08 01:16:11;;;;;;;10.90;5.50;;;;;;;14.67;73.11;99782.50;2605741;27;20472;-77
2024/04/08 01:17:24;;;;;;;10.40;5.55;;;;;;;14.66;72.98;99779.00;2587249;27;20016;-78
2024/04/08 01:18:37;;;;;;;4.63;3.80;;;;;;;14.68;73.80;99786.84;2604202;27;20037;-77
2024/04/08 01:19:51;;;;;;;12.40;5.65;;;;;;;14.65;73.00;99779.94;2594440;27;20005;-77
2024/04/08 01:21:05;;;;;;;10.60;3.78;;;;;;;14.62;73.34;99780.06;2620753;27;19999;-76
2024/04/08 01:22:18;;;;;;;9.00;3.92;;;;;;;14.64;73.08;99779.97;2637269;27;20013;-78
2024/04/08 01:23:38;;;;;;;8.50;4.20;;;;;;;14.64;73.18;99783.47;2628941;27;20011;-77
2024/04/08 01:24:51;;;;;;;12.15;5.25;;;;;;;14.66;73.86;99783.41;2604916;27;20020;-76
2024/04/08 01:26:05;;;;;;;11.07;5.50;;;;;;;14.65;73.55;99782.56;2604539;27;20000;-77
2024/04/08 01:27:18;;;;;;;14.68;5.38;;;;;;;14.67;73.32;99783.34;2619645;27;20048;-78
2024/04/08 01:28:31;;;;;;;9.90;5.15;;;;;;;14.67;73.74;99778.09;2620205;27;20004;-79
2024/04/08 01:29:44;;;;;;;11.23;5.63;;;;;;;14.68;73.39;99782.44;2621720;27;20000;-76
2024/04/08 01:31:00;;;;;;;15.80;5.15;;;;;;;14.67;73.61;99790.38;2630486;27;20014;-77
2024/04/08 01:32:13;;;;;;;10.57;5.55;;;;;;;14.67;73.26;99804.38;2631062;27;20044;-77
2024/04/08 01:33:27;;;;;;;12.15;4.43;;;;;;;14.65;73.74;99803.56;2637589;27;20084;-77
2024/04/08 01:34:40;;;;;;;13.93;4.45;;;;;;;14.63;73.78;99787.00;2637696;27;20078;-78
2024/04/08 01:35:53;;;;;;;11.38;4.93;;;;;;;14.59;73.33;99814.31;2636756;27;20018;-77
2024/04/08 01:37:07;;;;;;;7.32;4.00;;;;;;;14.56;73.84;99796.91;2620222;27;20018;-78
2024/04/08 01:38:20;;;;;;;11.70;4.88;;;;;;;14.56;73.96;99780.28;2626670;27;20050;-78
2024/04/08 01:39:34;;;;;;;9.30;4.15;;;;;;;14.54;73.74;99816.25;2637224;27;20044;-77
2024/04/08 01:40:47;;;;;;;9.35;4.93;;;;;;;14.53;73.92;99799.66;2637748;27;20344;-78
2024/04/08 01:42:00;;;;;;;10.13;5.15;;;;;;;14.49;73.58;99790.16;2632011;27;20708;-77
2024/04/08 01:43:13;;;;;;;18.48;5.00;;;;;;;14.49;73.78;99810.28;2637360;27;20103;-77
2024/04/08 01:44:26;;;;;;;7.38;4.22;;;;;;;14.47;73.57;99806.88;2636287;27;20010;-77
2024/04/08 01:45:40;;;;;;;8.90;4.82;;;;;;;14.46;74.00;99800.78;2636885;27;20698;-77
2024/04/08 01:46:53;;;;;;;17.33;4.93;;;;;;;14.48;73.75;99808.56;2637598;27;20003;-78
2024/04/08 01:48:07;;;;;;;11.20;4.95;;;;;;;14.48;74.33;99811.19;2637810;27;20010;-77
2024/04/08 01:49:20;;;;;;;12.90;3.42;;;;;;;14.48;73.58;99805.94;2637665;27;20002;-78
2024/04/08 01:50:33;;;;;;;6.28;4.20;;;;;;;14.45;74.11;99799.03;2621044;27;20056;-78
2024/04/08 01:51:46;;;;;;;8.13;3.85;;;;;;;14.44;74.17;99801.75;2616744;27;20001;-78
2024/04/08 01:53:00;;;;;;;6.75;4.53;;;;;;;14.43;74.21;99795.66;2607109;27;20362;-78
2024/04/08 01:54:13;;;;;;;11.07;5.20;;;;;;;14.44;73.73;99820.13;2623299;27;20083;-78
2024/04/08 01:55:26;;;;;;;12.63;4.10;;;;;;;14.42;74.18;99808.81;2604944;27;20004;-78
2024/04/08 01:56:39;;;;;;;4.95;4.28;;;;;;;14.40;74.31;99800.97;2606180;27;20014;-78
2024/04/08 01:57:52;;;;;;;9.93;3.88;;;;;;;14.38;74.40;99811.56;2622030;27;20052;-78
2024/04/08 01:59:06;;;;;;;6.15;3.05;;;;;;;14.38;74.32;99801.06;2606382;27;20021;-78
2024/04/08 02:00:19;;;;;;;13.45;5.95;;;;;;;14.37;74.21;99807.22;2624457;27;20075;-76
2024/04/08 02:01:33;;;;;;;7.82;3.97;;;;;;;14.39;74.14;99815.03;2622633;27;20008;-78
2024/04/08 02:02:46;;;;;;;8.45;4.20;;;;;;;14.39;74.16;99808.00;2627371;27;20479;-78
2024/04/08 02:03:59;;;;;;;13.40;4.18;;;;;;;14.42;74.05;99799.16;2637712;27;20081;-77
2024/04/08 02:05:12;;;;;;;10.02;5.28;;;;;;;14.45;74.17;99799.03;2634080;27;20043;-78
2024/04/08 02:06:26;;;;;;;9.48;4.40;;;;;;;14.46;74.09;99790.28;2628007;27;20073;-78
2024/04/08 02:07:39;;;;;;;15.95;5.22;;;;;;;14.48;73.83;99788.44;2639230;27;20026;-78
2024/04/08 02:08:53;;;;;;;12.15;5.20;;;;;;;14.51;74.13;99797.97;2621928;27;20003;-78
2024/04/08 02:10:06;;;;;;;20.88;5.43;;;;;;;14.52;73.72;99794.41;2628656;27;20003;-79
2024/04/08 02:11:19;;;;;;;11.95;4.70;;;;;;;14.53;73.58;99797.03;2621621;27;20502;-78
2024/04/08 02:12:32;;;;;;;12.10;4.60;;;;;;;14.56;73.61;99807.41;2638405;27;20085;-78
2024/04/08 02:13:46;;;;;;;5.60;4.10;;;;;;;14.58;73.35;99815.22;2656246;27;20006;-78
2024/04/08 02:14:59;;;;;;;14.38;4.47;;;;;;;14.57;73.36;99814.38;2646906;27;20006;-78
2024/04/08 02:16:13;;;;;;;5.93;4.07;;;;;;;14.59;73.44;99816.94;2637533;27;20022;-78
2024/04/08 02:17:27;;;;;;;8.63;3.83;;;;;;;14.59;73.14;99788.06;2636500;27;20006;-78
2024/04/08 02:18:40;;;;;;;6.90;3.78;;;;;;;14.59;72.80;99799.41;2638391;27;20474;-78
2024/04/08 02:19:53;;;;;;;11.18;5.32;;;;;;;14.58;73.23;99810.81;2639209;27;20508;-78
2024/04/08 02:21:11;;;;;;;9.35;4.25;;;;;;;14.56;73.00;99802.16;2654566;27;20493;-78
2024/04/08 02:22:24;;;;;;;14.68;4.15;;;;;;;14.56;72.75;99809.16;2638962;27;20460;-78
2024/04/08 02:23:38;;;;;;;8.93;3.60;;;;;;;14.56;72.46;99810.03;2638672;27;20015;-78
2024/04/08 02:24:51;;;;;;;9.65;3.80;;;;;;;14.56;73.17;99807.41;2627475;27;20829;-78
2024/04/08 02:26:04;;;;;;;9.32;4.35;;;;;;;14.58;72.72;99809.97;2639012;27;20011;-78
2024/04/08 02:27:18;;;;;;;9.25;4.38;;;;;;;14.57;72.93;99810.88;2655002;27;20483;-78
2024/04/08 02:28:32;;;;;;;12.48;4.00;;;;;;;14.58;73.03;99809.97;2638891;27;20003;-78
2024/04/08 02:29:46;;;;;;;11.50;4.18;;;;;;;14.57;72.80;99806.50;2645760;27;20435;-78
2024/04/08 02:31:03;;;;;;;9.45;3.67;;;;;;;14.57;72.77;99813.50;2640283;27;20003;-78
2024/04/08 02:32:16;;;;;;;9.32;4.55;;;;;;;14.54;72.92;99811.00;2638607;27;20419;-78
2024/04/08 02:33:38;;;;;;;17.85;6.50;;;;;;;14.51;72.89;99817.19;2640603;27;20007;-78
2024/04/08 02:34:51;;;;;;;9.15;4.30;;;;;;;14.48;72.76;99819.06;2656590;27;20002;-77
2024/04/08 02:36:05;;;;;;;9.10;4.32;;;;;;;14.45;72.73;99825.28;2653547;27;20018;-78
2024/04/08 02:37:18;;;;;;;8.13;5.13;;;;;;;14.43;73.12;99814.03;2660901;27;20003;-78
2024/04/08 02:38:32;;;;;;;8.68;4.38;;;;;;;14.42;73.02;99814.91;2643317;27;20039;-78
2024/04/08 02:39:46;;;;;;;11.48;4.50;;;;;;;14.42;73.17;99814.91;2631157;27;20017;-78
2024/04/08 02:40:59;;;;;;;11.27;4.97;;;;;;;14.40;72.79;99807.13;2646286;27;20017;-78
2024/04/08 02:42:13;;;;;;;10.30;5.38;;;;;;;14.37;73.20;99812.47;2627564;27;20373;-78
2024/04/08 02:43:26;;;;;;;8.80;4.75;;;;;;;14.36;73.24;99805.50;2643407;27;20006;-78
2024/04/08 02:44:39;;;;;;;9.68;4.18;;;;;;;14.38;73.37;99808.94;2638693;27;20015;-78
2024/04/08 02:45:52;;;;;;;12.65;5.43;;;;;;;14.37;73.38;99806.34;2628570;27;20015;-78
2024/04/08 02:47:06;;;;;;;11.35;5.68;;;;;;;14.35;73.09;99806.44;2638146;27;20014;-77
2024/04/08 02:48:20;;;;;;;9.68;4.18;;;;;;;14.35;73.11;99802.94;2638277;27;20021;-79
2024/04/08 02:49:33;;;;;;;12.60;4.45;;;;;;;14.33;73.24;99810.03;2655295;27;20050;-78
2024/04/08 02:50:47;;;;;;;11.05;6.22;;;;;;;14.31;73.34;99822.34;2637430;27;20018;-78
2024/04/08 02:52:00;;;;;;;6.28;4.43;;;;;;;14.29;73.40;99808.41;2643909;27;20033;-79
2024/04/08 02:53:13;;;;;;;10.30;3.25;;;;;;;14.27;73.34;99815.50;2637648;27;20007;-78
2024/04/08 02:54:26;;;;;;;12.15;4.18;;;;;;;14.22;74.13;99805.16;2627030;27;20474;-78
2024/04/08 02:55:40;;;;;;;14.10;3.97;;;;;;;14.18;73.92;99808.81;2637427;27;20014;-78
2024/04/08 02:56:53;;;;;;;8.85;4.60;;;;;;;14.13;73.73;99810.75;2643675;27;20002;-78
2024/04/08 02:58:06;;;;;;;10.02;4.00;;;;;;;14.07;74.13;99808.34;2639303;27;20019;-78
2024/04/08 02:59:20;;;;;;;8.10;4.25;;;;;;;14.02;74.41;99824.28;2651957;27;20002;-78
2024/04/08 03:00:37;;;;;;;7.03;3.60;;;;;;;13.95;74.75;99815.75;2648977;27;20010;-78
2024/04/08 03:01:51;;;;;;;9.82;3.60;;;;;;;13.91;74.21;99818.53;2638695;27;20510;-78
2024/04/08 03:03:05;;;;;;;7.50;4.72;;;;;;;13.88;74.53;99819.50;2654584;27;20013;-78
2024/04/08 03:04:18;;;;;;;6.70;4.20;;;;;;;13.88;74.57;99824.75;2638229;27;20007;-78
2024/04/08 03:05:31;;;;;;;7.93;4.40;;;;;;;13.88;75.05;99819.50;2608010;27;20015;-78
2024/04/08 03:06:44;;;;;;;8.38;4.57;;;;;;;13.90;75.12;99828.19;2622340;27;20008;-78
2024/04/08 03:07:58;;;;;;;12.40;4.20;;;;;;;13.91;74.71;99823.78;2635293;27;20002;-78
2024/04/08 03:09:11;;;;;;;21.38;5.60;;;;;;;13.94;75.22;99821.06;2650324;27;20007;-78
2024/04/08 03:10:25;;;;;;;16.75;6.38;;;;;;;13.95;74.55;99817.53;2655957;27;20013;-78
2024/04/08 03:11:38;;;;;;;19.90;5.57;;;;;;;13.95;74.79;99812.28;2637830;27;19999;-78
2024/04/08 03:12:53;;;;;;;15.85;5.32;;;;;;;13.97;75.00;99823.56;2645127;27;20085;-78
2024/04/08 03:14:06;;;;;;;11.75;5.45;;;;;;;13.94;75.08;99821.91;2649216;27;20006;-78
2024/04/08 03:15:19;;;;;;;13.38;4.55;;;;;;;13.92;74.45;99818.50;2638731;27;20018;-77
2024/04/08 03:16:33;;;;;;;13.88;4.85;;;;;;;13.88;74.86;99809.00;2639095;27;19999;-78
2024/04/08 03:17:46;;;;;;;10.18;4.50;;;;;;;13.86;75.16;99823.97;2654582;27;20006;-78
2024/04/08 03:18:59;;;;;;;10.13;4.93;;;;;;;13.83;75.20;99808.31;2637734;27;20463;-78
2024/04/08 03:20:12;;;;;;;10.45;4.68;;;;;;;13.82;75.19;99808.38;2644514;27;20156;-77
2024/04/08 03:21:26;;;;;;;17.58;5.78;;;;;;;13.81;75.26;99815.41;2649848;27;20140;-78
2024/04/08 03:22:39;;;;;;;12.48;4.78;;;;;;;13.81;74.97;99815.41;2640506;27;20085;-78
2024/04/08 03:23:52;;;;;;;11.00;4.43;;;;;;;13.82;75.02;99813.63;2653444;27;20727;-78
2024/04/08 03:25:06;;;;;;;8.85;4.38;;;;;;;13.81;75.26;99812.78;2639037;27;20495;-78
2024/04/08 03:26:19;;;;;;;9.55;5.28;;;;;;;13.77;75.09;99815.56;2644144;27;20006;-78
2024/04/08 03:27:32;;;;;;;10.25;3.85;;;;;;;13.71;74.64;99814.00;2638350;27;20054;-78
2024/04/08 03:28:46;;;;;;;9.25;4.07;;;;;;;13.62;74.96;99809.91;2644324;27;20006;-78
2024/04/08 03:29:59;;;;;;;8.50;4.47;;;;;;;13.55;74.97;99815.44;2638500;27;20528;-78
2024/04/08 03:31:13;;;;;;;11.00;4.45;;;;;;;13.47;75.85;99811.28;2643578;27;20422;-78
2024/04/08 03:32:26;;;;;;;13.35;6.60;;;;;;;13.41;75.75;99814.13;2634900;27;20000;-78
2024/04/08 03:33:39;;;;;;;13.77;4.75;;;;;;;13.37;75.92;99817.78;2639969;27;20081;-78
2024/04/08 03:34:52;;;;;;;17.30;6.05;;;;;;;13.31;76.32;99813.59;2655487;27;20003;-79
2024/04/08 03:36:09;;;;;;;10.02;4.43;;;;;;;13.31;76.46;99817.97;2638414;27;20302;-78
2024/04/08 03:37:25;;;;;;;9.82;5.80;;;;;;;13.28;76.20;99816.31;2627341;27;20019;-78
2024/04/08 03:38:38;;;;;;;16.30;4.10;;;;;;;13.27;76.76;99829.47;2638596;27;20202;-78
2024/04/08 03:39:52;;;;;;;19.48;4.80;;;;;;;13.25;76.75;99823.41;2643832;27;20015;-78
2024/04/08 03:41:06;;;;;;;7.55;4.25;;;;;;;13.25;76.94;99824.25;2655714;27;20073;-79
2024/04/08 03:42:21;;;;;;;7.35;4.63;;;;;;;13.22;76.68;99824.34;2638406;27;20018;-78
2024/04/08 03:43:34;;;;;;;12.50;5.43;;;;;;;13.18;77.06;99830.59;2638228;27;20410;-78
2024/04/08 03:44:52;;;;;;;9.00;4.63;;;;;;;13.16;76.91;99828.91;2655148;27;20002;-78
2024/04/08 03:46:05;;;;;;;9.00;5.25;;;;;;;13.15;77.01;99816.75;2638717;27;20003;-78
2024/04/08 03:47:18;;;;;;;9.98;5.15;;;;;;;13.13;76.85;99822.00;2643968;27;20418;-78
2024/04/08 03:48:31;;;;;;;10.30;6.20;;;;;;;13.11;76.64;99831.69;2638349;27;20006;-78
2024/04/08 03:49:45;;;;;;;8.73;5.38;;;;;;;13.07;76.67;99833.56;2638773;27;20003;-78
2024/04/08 03:51:09;;;;;;;6.72;4.45;;;;;;;13.05;76.87;99827.50;2656008;27;20006;-78
2024/04/08 03:52:23;;;;;;;12.55;5.57;;;;;;;13.02;76.48;99824.13;2638661;27;20547;-80
2024/04/08 03:53:36;;;;;;;9.98;4.18;;;;;;;12.98;76.58;99820.75;2628485;27;20010;-78
2024/04/08 03:54:49;;;;;;;10.85;4.60;;;;;;;12.94;77.08;99813.91;2639638;27;20027;-76
2024/04/08 03:56:10;;;;;;;13.35;4.85;;;;;;;12.93;77.13;99820.03;2655443;27;19999;-77
2024/04/08 03:57:23;;;;;;;9.30;5.57;;;;;;;12.90;76.97;99827.97;2638964;27;20050;-78
2024/04/08 03:58:40;;;;;;;9.43;4.63;;;;;;;12.88;76.99;99829.78;2638686;27;20003;-78
2024/04/08 03:59:54;;;;;;;12.80;5.30;;;;;;;12.87;77.14;99821.06;2655164;27;20815;-78
2024/04/08 04:01:09;;;;;;;10.38;4.72;;;;;;;12.87;77.13;99828.94;2649860;27;20003;-77
2024/04/08 04:02:22;;;;;;;12.63;5.70;;;;;;;12.86;77.32;99840.31;2655610;27;20002;-76
2024/04/08 04:03:36;;;;;;;8.60;4.95;;;;;;;12.86;77.33;99834.25;2637627;27;20003;-77
2024/04/08 04:04:49;;;;;;;28.80;6.15;;;;;;;12.84;77.42;99833.41;2639327;27;20018;-77
2024/04/08 04:06:03;;;;;;;9.52;4.25;;;;;;;12.83;77.27;99826.44;2638502;27;20011;-77
2024/04/08 04:07:16;;;;;;;8.30;4.22;;;;;;;12.80;77.51;99837.03;2654862;27;20014;-77
2024/04/08 04:08:30;;;;;;;10.13;4.22;;;;;;;12.79;77.38;99833.56;2649448;27;20804;-77
2024/04/08 04:09:43;;;;;;;9.80;4.03;;;;;;;12.76;77.46;99835.44;2655260;27;20503;-78
2024/04/08 04:10:57;;;;;;;8.93;3.97;;;;;;;12.73;77.38;99840.75;2638390;27;20007;-77
2024/04/08 04:12:10;;;;;;;9.93;4.45;;;;;;;12.69;77.31;99836.50;2638347;27;20102;-78
2024/04/08 04:13:23;;;;;;;11.95;4.25;;;;;;;12.63;77.85;99827.09;2627402;27;20464;-79
2024/04/08 04:14:36;;;;;;;21.23;5.70;;;;;;;12.60;77.62;99832.41;2621365;27;20004;-78
2024/04/08 04:15:51;;;;;;;7.25;4.88;;;;;;;12.56;77.47;99829.00;2627502;27;20424;-78
2024/04/08 04:17:04;;;;;;;14.23;4.90;;;;;;;12.53;77.82;99833.50;2654667;27;20021;-80
2024/04/08 04:18:17;;;;;;;7.78;4.28;;;;;;;12.50;77.72;99829.22;2631408;27;20349;-78
2024/04/08 04:19:31;;;;;;;7.10;3.50;;;;;;;12.47;77.76;99828.44;2621058;27;20008;-79
2024/04/08 04:20:45;;;;;;;23.90;5.82;;;;;;;12.44;77.39;99834.59;2627910;27;20444;-78
2024/04/08 04:21:59;;;;;;;6.78;4.22;;;;;;;12.41;77.74;99829.47;2621204;27;20015;-78
2024/04/08 04:23:16;;;;;;;6.82;3.97;;;;;;;12.37;77.57;99823.47;2622252;27;20036;-77
2024/04/08 04:24:29;;;;;;;16.02;4.90;;;;;;;12.30;77.78;99824.56;2638039;27;20017;-78
2024/04/08 04:25:42;;;;;;;9.40;4.70;;;;;;;12.22;77.89;99827.38;2649514;27;19995;-78
2024/04/08 04:26:55;;;;;;;11.40;4.45;;;;;;;12.17;77.81;99834.50;2647760;27;20604;-78
2024/04/08 04:28:09;;;;;;;8.25;5.18;;;;;;;12.12;77.79;99828.56;2648060;27;20002;-78
2024/04/08 04:29:22;;;;;;;9.23;4.70;;;;;;;12.07;77.98;99814.75;2624995;27;20018;-79
2024/04/08 04:30:35;;;;;;;11.68;4.15;;;;;;;12.02;77.86;99815.78;2621738;27;20000;-77
2024/04/08 04:31:48;;;;;;;11.63;4.28;;;;;;;11.97;78.25;99819.38;2638017;27;20680;-79
2024/04/08 04:33:02;;;;;;;15.55;6.03;;;;;;;11.96;78.61;99824.66;2629396;27;20019;-77
2024/04/08 04:34:15;;;;;;;11.57;5.13;;;;;;;11.93;78.35;99816.91;2632970;27;20436;-77
2024/04/08 04:35:29;;;;;;;16.60;6.22;;;;;;;11.90;78.52;99817.84;2632860;27;20002;-79
2024/04/08 04:36:45;;;;;;;12.50;5.32;;;;;;;11.89;78.86;99820.50;2625871;27;20344;-77
2024/04/08 04:37:58;;;;;;;11.77;4.50;;;;;;;11.86;78.87;99815.31;2639835;27;20070;-79
2024/04/08 04:39:11;;;;;;;17.15;6.00;;;;;;;11.82;79.10;99813.66;2634063;27;20015;-77
2024/04/08 04:40:25;;;;;;;10.75;5.47;;;;;;;11.81;79.18;99818.03;2623061;27;20090;-77
2024/04/08 04:41:38;;;;;;;12.40;4.65;;;;;;;11.79;78.99;99812.00;2626140;27;20373;-78
2024/04/08 04:42:51;;;;;;;11.05;5.45;;;;;;;11.76;79.02;99817.31;2640575;27;20517;-78
2024/04/08 04:44:04;;;;;;;10.20;6.72;;;;;;;11.72;79.21;99808.72;2632501;27;20015;-78
2024/04/08 04:45:18;;;;;;;16.27;4.75;;;;;;;11.69;79.14;99802.69;2623621;27;20007;-78
2024/04/08 04:46:32;;;;;;;13.15;5.85;;;;;;;11.66;78.98;99802.78;2623394;27;20039;-77
2024/04/08 04:47:45;;;;;;;15.65;5.88;;;;;;;11.62;79.31;99802.00;2639016;27;20034;-77
2024/04/08 04:48:58;;;;;;;8.85;4.90;;;;;;;11.61;79.33;99804.66;2640010;27;20007;-78
2024/04/08 04:50:11;;;;;;;9.30;5.32;;;;;;;11.60;79.25;99806.41;2640310;27;20055;-78
2024/04/08 04:51:25;;;;;;;7.47;5.18;;;;;;;11.60;79.42;99810.78;2623094;27;20011;-78
2024/04/08 04:52:38;;;;;;;12.60;5.57;;;;;;;11.59;79.63;99807.31;2626465;27;20003;-78
2024/04/08 04:53:51;;;;;;;9.30;4.43;;;;;;;11.59;79.52;99812.53;2635192;27;20039;-78
2024/04/08 04:55:05;;;;;;;10.40;4.80;;;;;;;11.58;79.62;99816.88;2623048;27;19999;-78
2024/04/08 04:56:18;;;;;;;11.65;5.47;;;;;;;11.56;79.69;99813.50;2623559;27;20390;-78
2024/04/08 04:57:31;;;;;;;16.08;4.82;;;;;;;11.54;79.63;99812.66;2654386;27;19994;-77
2024/04/08 04:58:45;;;;;;;9.88;5.30;;;;;;;11.51;79.64;99819.69;2640116;27;20087;-78
2024/04/08 04:59:58;;;;;;;12.35;4.43;;;;;;;11.51;79.55;99820.59;2632419;27;20019;-78
2024/04/08 05:01:11;;;;;;;13.30;4.13;;;;;;;11.50;79.56;99816.25;2650426;27;20057;-78
2024/04/08 05:02:24;;;;;;;10.98;5.25;;;;;;;11.51;79.49;99822.31;2638788;27;20020;-79
2024/04/08 05:03:37;;;;;;;9.60;4.93;;;;;;;11.51;79.89;99817.09;2654976;27;20068;-77
2024/04/08 05:04:51;;;;;;;10.43;5.20;;;;;;;11.53;80.09;99815.31;2639964;27;20014;-77
2024/04/08 05:06:04;;;;;;;11.10;4.90;;;;;;;11.55;79.54;99816.13;2625130;27;20009;-78
2024/04/08 05:07:17;;;;;;;12.38;4.93;;;;;;;11.56;80.00;99816.09;2617957;27;19999;-79
2024/04/08 05:08:31;;;;;;;8.98;4.57;;;;;;;11.56;79.94;99823.06;2636223;27;20010;-78
2024/04/08 05:09:44;;;;;;;8.90;5.05;;;;;;;11.55;79.67;99822.19;2628704;27;20524;-78
2024/04/08 05:10:57;;;;;;;11.25;6.85;;;;;;;11.54;79.35;99830.09;2628611;27;19999;-79
2024/04/08 05:12:11;;;;;;;16.05;5.32;;;;;;;11.51;79.91;99836.25;2630784;27;20661;-77
2024/04/08 05:13:24;;;;;;;16.58;5.93;;;;;;;11.50;79.92;99828.44;2629775;27;20011;-79
2024/04/08 05:14:37;;;;;;;14.70;6.05;;;;;;;11.50;79.97;99833.69;2628990;27;19999;-78
2024/04/08 05:15:57;;;;;;;14.60;5.70;;;;;;;11.52;79.84;99837.13;2639982;27;20092;-78
2024/04/08 05:17:10;;;;;;;18.77;5.43;;;;;;;11.51;80.11;99836.25;2632616;27;19999;-78
2024/04/08 05:18:24;;;;;;;13.32;7.18;;;;;;;11.52;80.08;99837.13;2627280;27;20004;-77
2024/04/08 05:19:37;;;;;;;17.30;5.97;;;;;;;11.51;79.83;99827.53;2639056;27;20007;-78
2024/04/08 05:20:51;;;;;;;15.40;5.93;;;;;;;11.50;80.01;99821.47;2623270;27;19999;-77
2024/04/08 05:22:04;;;;;;;12.35;5.28;;;;;;;11.50;79.77;99826.69;2628939;27;19999;-77
2024/04/08 05:23:20;;;;;;;12.45;5.30;;;;;;;11.52;79.75;99827.50;2623282;27;20000;-79
2024/04/08 05:24:33;;;;;;;19.08;5.60;;;;;;;11.54;80.20;99835.34;2628916;27;20002;-78
2024/04/08 05:25:47;;;;;;;15.48;5.53;;;;;;;11.56;80.12;99825.66;2627170;27;20000;-78
2024/04/08 05:27:01;;;;;;;14.65;6.72;;;;;;;11.58;80.09;99829.09;2638049;27;20397;-79
2024/04/08 05:28:14;;;;;;;15.93;6.63;;;;;;;11.62;79.98;99832.53;2621889;27;20015;-77
2024/04/08 05:29:27;;;;;;;12.93;6.28;;;;;;;11.64;79.69;99831.59;2642210;27;20002;-79
2024/04/08 05:30:40;;;;;;;12.65;5.82;;;;;;;11.67;79.69;99828.88;2635617;27;19999;-78
2024/04/08 05:31:54;;;;;;;11.48;5.90;;;;;;;11.67;79.67;99831.50;2639450;27;20904;-77
2024/04/08 05:33:08;;;;;;;18.73;7.05;;;;;;;11.68;79.66;99833.19;2623145;27;20004;-77
2024/04/08 05:34:21;;;;;;;32.15;6.65;;;;;;;11.71;79.71;99829.66;2612535;27;20019;-78
2024/04/08 05:35:36;;;;;;;15.88;6.22;;;;;;;11.75;79.34;99826.91;2611757;27;20000;-77
2024/04/08 05:36:49;;;;;;;13.38;5.90;;;;;;;11.78;79.59;99826.81;2628700;27;20013;-77
2024/04/08 05:38:03;;;;;;;15.45;6.05;;;;;;;11.82;79.55;99821.50;2635029;27;20006;-77
2024/04/08 05:39:16;;;;;;;17.98;6.75;;;;;;;11.86;79.58;99815.31;2639789;27;19998;-77
2024/04/08 05:40:34;;;;;;;12.65;6.05;;;;;;;11.91;79.49;99818.69;2623010;27;20000;-78
2024/04/08 05:41:47;;;;;;;11.98;5.88;;;;;;;11.95;79.39;99809.84;2630144;27;20003;-77
2024/04/08 05:43:00;;;;;;;24.75;6.95;;;;;;;11.96;79.09;99798.50;2623901;27;20496;-78
2024/04/08 05:44:14;;;;;;;13.95;5.63;;;;;;;11.99;78.66;99801.88;2627871;27;20433;-78
2024/04/08 05:45:28;;;;;;;13.90;6.00;;;;;;;12.04;78.91;99806.13;2634179;27;20000;-78
2024/04/08 05:46:42;;;;;;;10.80;5.57;;;;;;;12.11;79.14;99805.06;2636245;27;20038;-78
2024/04/08 05:47:56;;;;;;;12.65;4.57;;;;;;;12.19;79.09;99803.94;2623146;27;20334;-77
2024/04/08 05:49:09;;;;;;;22.17;7.15;;;;;;;12.28;78.71;99818.50;2640151;27;20050;-79